Terminal Aerodrome Forecast
Issued by NWS

Home | Current Version | Previous Version | Text Only | Print | Product List | Glossary On
Versions: 1 2 3 4 5 6 7 8 9 10 11 12 13 14 15 16 17 18 19 20 21 22 23 24 25 26 27 28
447
FTUS41 KOKX 262351
TAFSWF
TAF
KSWF 262351Z 2700/2806 29009KT P6SM SCT050
     FM270300 26005KT P6SM SKC
     FM271400 27012G18KT P6SM SCT120
     FM271600 26015G22KT P6SM SCT080 SCT120
     FM272300 25008KT P6SM SCT060 SCT120
     FM280100 23004KT P6SM SCT040 BKN090
     FM280400 23004KT P6SM BKN050
      AMD NOT SKED=

USA.gov is the U.S. government's official web portal to all federal, state and local government web resources and services.